createdAt,value
2018-09-13T00:00:59.303Z,91.40
2018-09-13T00:03:27.955Z,91.60
2018-09-13T00:05:56.645Z,91.80
2018-09-13T00:08:25.293Z,91.90
2018-09-13T00:10:53.931Z,92.20
2018-09-13T00:13:22.671Z,92.20
2018-09-13T00:15:51.382Z,92.40
2018-09-13T00:18:20.061Z,92.40
2018-09-13T00:20:48.705Z,92.70
2018-09-13T00:23:17.372Z,92.90
2018-09-13T00:25:45.995Z,93.10
2018-09-13T00:28:14.636Z,93.20
2018-09-13T00:30:43.285Z,93.40
2018-09-13T00:33:11.947Z,93.80
2018-09-13T00:35:40.596Z,93.90
2018-09-13T00:38:09.255Z,94.00
2018-09-13T00:40:37.887Z,94.10
2018-09-13T00:43:06.607Z,94.10
2018-09-13T00:45:35.251Z,93.90
2018-09-13T00:48:03.925Z,94.10
2018-09-13T00:50:32.570Z,94.30
2018-09-13T00:53:01.219Z,94.50
2018-09-13T00:55:30.008Z,94.70
2018-09-13T00:57:58.633Z,95.00
2018-09-13T01:00:27.281Z,95.00
2018-09-13T01:02:55.911Z,94.70
2018-09-13T01:05:24.567Z,94.50
2018-09-13T01:07:53.241Z,94.30
2018-09-13T01:10:21.979Z,94.20
2018-09-13T01:12:50.711Z,94.20
2018-09-13T01:15:19.355Z,94.40
2018-09-13T01:17:48.024Z,94.60
2018-09-13T01:20:16.693Z,94.70
2018-09-13T01:22:45.351Z,94.70
2018-09-13T01:25:14.000Z,95.00
2018-09-13T01:27:42.676Z,95.00
2018-09-13T01:30:11.342Z,95.00
2018-09-13T01:32:40.004Z,95.30
2018-09-13T01:35:08.718Z,95.40
2018-09-13T01:37:37.366Z,95.60
2018-09-13T01:40:06.120Z,95.90
2018-09-13T01:42:34.796Z,95.90
2018-09-13T01:45:03.458Z,95.80
2018-09-13T01:47:32.175Z,95.90
2018-09-13T01:50:00.812Z,96.00
2018-09-13T01:52:29.491Z,96.00
2018-09-13T01:54:58.141Z,95.90
2018-09-13T01:57:26.768Z,96.20
2018-09-13T01:59:55.437Z,96.40
2018-09-13T02:02:24.077Z,96.70
2018-09-13T02:04:52.771Z,96.90
2018-09-13T02:07:21.386Z,97.00
2018-09-13T02:09:50.022Z,96.90
2018-09-13T02:12:18.739Z,96.80
2018-09-13T02:14:47.400Z,96.90
2018-09-13T02:17:16.025Z,96.90
2018-09-13T02:19:44.662Z,97.10
2018-09-13T02:22:13.312Z,97.50
2018-09-13T02:24:41.968Z,97.30
2018-09-13T02:27:10.598Z,97.30
2018-09-13T02:29:39.244Z,97.40
2018-09-13T02:32:07.911Z,97.50
2018-09-13T02:34:36.548Z,97.60
2018-09-13T02:37:05.220Z,97.80
2018-09-13T02:39:33.857Z,97.90
2018-09-13T02:42:02.631Z,97.90
2018-09-13T02:44:31.276Z,97.80
2018-09-13T02:46:59.965Z,97.60
2018-09-13T02:49:28.718Z,97.50
2018-09-13T02:51:57.336Z,97.50
2018-09-13T02:54:25.957Z,97.60
2018-09-13T02:56:54.590Z,97.80
2018-09-13T02:59:23.247Z,98.00
2018-09-13T03:01:51.893Z,98.10
2018-09-13T03:04:20.540Z,98.20
2018-09-13T03:06:49.192Z,98.20
2018-09-13T03:09:17.845Z,97.90
2018-09-13T03:11:46.508Z,98.30
2018-09-13T03:14:15.124Z,98.60
2018-09-13T03:16:43.883Z,98.80
2018-09-13T03:19:12.512Z,98.90
2018-09-13T03:21:41.145Z,98.80
2018-09-13T03:24:09.772Z,98.80
2018-09-13T03:26:38.416Z,98.90
2018-09-13T03:29:07.195Z,98.90
2018-09-13T03:31:35.844Z,99.00
2018-09-13T03:34:04.595Z,98.90
2018-09-13T03:36:33.264Z,99.10
2018-09-13T03:39:02.147Z,99.30
2018-09-13T03:41:30.805Z,99.30
2018-09-13T03:43:59.469Z,99.40
2018-09-13T03:46:28.097Z,99.30
2018-09-13T03:48:56.752Z,99.30
2018-09-13T03:51:25.388Z,99.60
2018-09-13T03:53:54.026Z,99.80
2018-09-13T03:56:22.651Z,99.90
2018-09-13T03:58:51.481Z,99.90
2018-09-13T04:01:20.121Z,99.90
2018-09-13T04:03:48.999Z,99.80
2018-09-13T04:06:17.797Z,99.40
2018-09-13T04:08:46.564Z,99.30
2018-09-13T04:11:15.194Z,98.90
2018-09-13T04:13:43.979Z,98.40
2018-09-13T04:16:12.616Z,97.60
2018-09-13T04:18:41.359Z,96.80
2018-09-13T04:21:10.017Z,96.80
2018-09-13T04:23:38.666Z,97.20
2018-09-13T04:26:07.320Z,97.30
2018-09-13T04:28:35.978Z,97.30
2018-09-13T04:31:04.647Z,97.20
2018-09-13T04:33:33.373Z,97.10
2018-09-13T04:36:02.196Z,97.40
2018-09-13T04:38:30.831Z,97.60
2018-09-13T04:40:59.507Z,98.20
2018-09-13T04:43:28.260Z,98.50
2018-09-13T04:45:56.883Z,99.00
2018-09-13T04:48:25.568Z,99.30
2018-09-13T04:50:54.228Z,99.50
2018-09-13T04:53:22.886Z,99.40
2018-09-13T04:55:51.668Z,99.40
2018-09-13T04:58:20.469Z,99.30
2018-09-13T05:00:49.091Z,99.30
2018-09-13T05:03:17.722Z,99.40
2018-09-13T05:05:47.449Z,99.50
2018-09-13T05:08:20.826Z,99.80
2018-09-13T05:10:49.473Z,99.90
2018-09-13T05:13:29.171Z,99.90
2018-09-13T05:16:32.232Z,99.90
2018-09-13T05:19:13.792Z,99.90
2018-09-13T05:21:47.212Z,99.50
2018-09-13T05:24:32.128Z,99.40
2018-09-13T05:27:09.348Z,99.20
2018-09-13T05:32:23.415Z,98.80
2018-09-13T05:35:02.618Z,99.20
2018-09-13T05:37:40.847Z,99.40
2018-09-13T05:40:16.049Z,99.80
2018-09-13T05:42:50.604Z,99.90
2018-09-13T05:45:33.513Z,99.90
2018-09-13T05:48:05.884Z,99.90
2018-09-13T05:50:50.793Z,99.90
2018-09-13T05:53:19.480Z,99.90
2018-09-13T05:55:48.124Z,99.90
2018-09-13T05:58:16.769Z,99.90
2018-09-13T06:00:45.491Z,99.90
2018-09-13T06:03:14.103Z,99.90
2018-09-13T06:05:42.734Z,99.90
2018-09-13T06:08:12.332Z,99.90
2018-09-13T06:10:41.085Z,99.90
2018-09-13T06:13:09.708Z,99.90
2018-09-13T06:15:38.346Z,99.90
2018-09-13T06:18:26.128Z,99.90
2018-09-13T06:21:03.093Z,99.90
2018-09-13T06:23:44.743Z,99.90
2018-09-13T06:26:13.747Z,99.90
2018-09-13T06:28:44.408Z,99.90
2018-09-13T06:31:27.485Z,99.90
2018-09-13T06:33:56.450Z,99.90
2018-09-13T06:36:25.166Z,99.90
2018-09-13T06:38:53.886Z,99.90
2018-09-13T06:41:22.512Z,99.90
2018-09-13T06:43:51.140Z,99.90
2018-09-13T06:46:19.829Z,99.90
2018-09-13T06:48:48.551Z,99.90
2018-09-13T06:51:17.248Z,99.90
2018-09-13T06:53:45.945Z,98.60
2018-09-13T06:56:14.571Z,97.00
2018-09-13T06:58:43.228Z,96.00
2018-09-13T07:01:12.062Z,94.30
2018-09-13T07:03:40.724Z,93.10
2018-09-13T07:06:09.388Z,92.60
2018-09-13T07:08:38.068Z,91.70
2018-09-13T07:11:06.779Z,91.20
2018-09-13T07:13:35.446Z,90.80
2018-09-13T07:16:04.100Z,90.50
2018-09-13T07:18:32.788Z,90.20
2018-09-13T07:21:01.452Z,90.40
2018-09-13T07:23:30.118Z,89.90
2018-09-13T07:26:00.324Z,89.50
2018-09-13T07:28:29.003Z,89.20
2018-09-13T07:30:57.927Z,88.40
2018-09-13T07:33:26.503Z,88.30
2018-09-13T07:35:58.847Z,87.90
2018-09-13T07:38:27.513Z,87.70
2018-09-13T07:40:56.195Z,87.10
2018-09-13T07:43:24.871Z,86.20
2018-09-13T07:45:53.516Z,85.50
2018-09-13T07:48:22.137Z,85.00
2018-09-13T07:50:50.769Z,84.90
2018-09-13T07:53:19.459Z,84.80
2018-09-13T07:55:48.200Z,84.10
2018-09-13T07:58:16.824Z,83.00
2018-09-13T08:00:45.502Z,82.20
2018-09-13T08:03:14.140Z,81.30
2018-09-13T08:05:42.788Z,81.30
2018-09-13T08:08:11.449Z,81.20
2018-09-13T08:10:40.108Z,80.70
2018-09-13T08:13:08.761Z,79.60
2018-09-13T08:15:37.396Z,78.30
2018-09-13T08:18:06.117Z,77.00
2018-09-13T08:20:35.743Z,76.30
2018-09-13T08:23:04.400Z,74.90
2018-09-13T08:25:33.067Z,73.60
2018-09-13T08:28:01.993Z,73.70
2018-09-13T08:30:30.776Z,72.70
2018-09-13T08:32:59.421Z,71.30
2018-09-13T08:35:28.084Z,70.30
2018-09-13T08:37:56.748Z,69.10
2018-09-13T08:40:25.698Z,68.40
2018-09-13T08:42:54.406Z,67.40
2018-09-13T08:45:23.129Z,65.90
2018-09-13T08:47:51.791Z,66.60
2018-09-13T08:50:20.482Z,66.30
2018-09-13T08:52:49.117Z,65.40
2018-09-13T08:55:17.869Z,63.50
2018-09-13T08:57:46.604Z,62.10
2018-09-13T09:00:15.300Z,62.10
2018-09-13T09:02:43.978Z,61.60
2018-09-13T09:05:12.680Z,60.40
2018-09-13T09:07:41.516Z,60.10
2018-09-13T09:10:10.184Z,59.80
2018-09-13T09:12:38.828Z,59.60
2018-09-13T09:15:07.560Z,59.00
2018-09-13T09:17:36.294Z,58.00
2018-09-13T09:20:05.034Z,58.10
2018-09-13T09:22:33.665Z,58.00
2018-09-13T09:25:02.304Z,58.00
2018-09-13T09:27:30.936Z,57.20
2018-09-13T09:29:59.591Z,57.30
2018-09-13T09:32:28.252Z,57.50
2018-09-13T09:34:56.949Z,56.90
2018-09-13T09:37:25.645Z,56.70
2018-09-13T09:39:54.318Z,56.50
2018-09-13T09:42:22.971Z,56.80
2018-09-13T09:44:51.648Z,56.30
2018-09-13T09:47:20.293Z,56.00
2018-09-13T09:49:48.912Z,55.40
2018-09-13T09:52:17.577Z,55.10
2018-09-13T09:54:46.228Z,54.50
2018-09-13T09:57:14.885Z,54.20
2018-09-13T09:59:43.501Z,52.90
2018-09-13T10:02:12.257Z,52.40
2018-09-13T10:04:41.007Z,52.00
2018-09-13T10:07:09.596Z,51.30
2018-09-13T10:09:38.275Z,50.40
2018-09-13T10:12:06.939Z,50.00
2018-09-13T10:14:35.596Z,49.70
2018-09-13T10:17:09.764Z,49.20
2018-09-13T10:19:43.712Z,49.00
2018-09-13T10:22:17.744Z,48.80
2018-09-13T10:24:51.781Z,49.00
2018-09-13T10:27:25.891Z,48.20
2018-09-13T10:29:59.941Z,47.90
2018-09-13T10:32:33.905Z,47.80
2018-09-13T10:35:07.837Z,47.90
2018-09-13T10:37:41.912Z,47.10
2018-09-13T10:40:15.880Z,46.80
2018-09-13T10:42:49.822Z,47.10
2018-09-13T10:45:23.753Z,46.20
2018-09-13T10:47:57.681Z,45.10
2018-09-13T10:50:27.924Z,44.80
2018-09-13T10:53:03.301Z,44.00
2018-09-13T10:55:32.081Z,44.20
2018-09-13T10:58:00.625Z,43.90
2018-09-13T11:00:29.373Z,43.60
2018-09-13T11:02:58.043Z,42.60
2018-09-13T11:05:26.690Z,42.40
2018-09-13T11:07:55.366Z,41.90
2018-09-13T11:10:24.016Z,42.10
2018-09-13T11:12:58.120Z,42.00
2018-09-13T11:15:30.278Z,42.80
2018-09-13T11:17:59.520Z,42.10
2018-09-13T11:20:28.188Z,42.70
2018-09-13T11:22:56.876Z,41.70
2018-09-13T11:25:25.744Z,41.40
2018-09-13T11:27:54.731Z,41.10
2018-09-13T11:30:23.606Z,40.80
2018-09-13T11:32:52.293Z,40.20
2018-09-13T11:35:20.960Z,40.00
2018-09-13T11:37:49.696Z,39.80
2018-09-13T11:40:18.501Z,39.30
2018-09-13T11:42:47.103Z,39.00
2018-09-13T11:45:16.967Z,39.00
2018-09-13T11:47:45.592Z,39.00
2018-09-13T11:50:14.248Z,39.80
2018-09-13T11:52:42.861Z,39.30
2018-09-13T11:55:11.483Z,39.20
2018-09-13T11:57:40.117Z,38.90
2018-09-13T12:00:08.806Z,38.90
2018-09-13T12:02:37.443Z,38.90
2018-09-13T12:05:06.165Z,38.60
2018-09-13T12:07:34.852Z,38.00
2018-09-13T12:10:03.508Z,38.20
2018-09-13T12:12:34.244Z,38.00
2018-09-13T12:15:02.943Z,38.30
2018-09-13T12:17:31.631Z,38.30
2018-09-13T12:20:00.257Z,37.90
2018-09-13T12:22:28.963Z,38.10
2018-09-13T12:24:57.596Z,37.80
2018-09-13T12:27:26.335Z,37.80
2018-09-13T12:29:55.048Z,37.40
2018-09-13T12:32:23.701Z,37.40
2018-09-13T12:34:52.360Z,37.80
2018-09-13T12:37:20.996Z,37.60
2018-09-13T12:39:49.644Z,37.30
2018-09-13T12:42:18.327Z,37.20
2018-09-13T12:44:47.012Z,37.30
2018-09-13T12:47:15.652Z,37.40
2018-09-13T12:49:44.287Z,37.50
2018-09-13T12:52:12.955Z,36.80
2018-09-13T12:54:41.736Z,36.40
2018-09-13T12:57:10.386Z,36.20
2018-09-13T12:59:39.089Z,36.50
2018-09-13T13:02:07.788Z,36.20
2018-09-13T13:04:36.508Z,35.90
2018-09-13T13:07:05.235Z,36.30
2018-09-13T13:09:33.907Z,36.30
2018-09-13T13:12:02.568Z,36.20
2018-09-13T13:14:31.224Z,36.10
2018-09-13T13:16:59.875Z,35.90
2018-09-13T13:19:28.577Z,36.00
2018-09-13T13:21:57.360Z,36.20
2018-09-13T13:24:26.033Z,36.00
2018-09-13T13:26:54.752Z,37.20
2018-09-13T13:29:23.448Z,36.70
2018-09-13T13:31:52.109Z,36.70
2018-09-13T13:34:20.856Z,37.10
2018-09-13T13:36:49.500Z,36.80
2018-09-13T13:39:18.217Z,37.20
2018-09-13T13:41:46.953Z,37.20
2018-09-13T13:44:15.662Z,37.10
2018-09-13T13:46:44.337Z,36.70
2018-09-13T13:49:12.981Z,36.80
2018-09-13T13:51:41.632Z,36.70
2018-09-13T13:54:10.317Z,36.50
2018-09-13T13:56:38.938Z,36.50
2018-09-13T13:59:07.676Z,37.70
2018-09-13T14:01:36.452Z,39.60
2018-09-13T14:04:05.105Z,40.20
2018-09-13T14:06:33.736Z,40.80
2018-09-13T14:09:02.405Z,40.90
2018-09-13T14:11:31.039Z,41.80
2018-09-13T14:13:59.677Z,42.20
2018-09-13T14:16:28.351Z,41.80
2018-09-13T14:18:57.072Z,41.40
2018-09-13T14:21:25.703Z,41.10
2018-09-13T14:23:54.400Z,41.50
2018-09-13T14:26:23.080Z,42.10
2018-09-13T14:28:51.735Z,43.40
2018-09-13T14:31:20.452Z,42.50
2018-09-13T14:33:49.073Z,42.80
2018-09-13T14:36:17.777Z,42.00
2018-09-13T14:38:46.420Z,42.10
2018-09-13T14:41:15.107Z,42.40
2018-09-13T14:43:43.838Z,42.90
2018-09-13T14:46:12.489Z,42.60
2018-09-13T14:48:41.144Z,42.80
2018-09-13T14:51:09.797Z,43.20
2018-09-13T14:53:38.428Z,44.50
2018-09-13T14:56:07.356Z,46.80
2018-09-13T14:58:36.018Z,49.30
2018-09-13T15:01:04.685Z,51.20
2018-09-13T15:03:33.329Z,52.20
2018-09-13T15:06:01.985Z,53.10
2018-09-13T15:08:30.684Z,53.30
2018-09-13T15:10:59.332Z,51.90
2018-09-13T15:13:28.004Z,51.10
2018-09-13T15:15:56.698Z,51.50
2018-09-13T15:18:25.371Z,52.70
2018-09-13T15:20:54.072Z,53.20
2018-09-13T15:23:22.695Z,52.60
2018-09-13T15:25:51.348Z,52.00
2018-09-13T15:28:19.993Z,51.00
2018-09-13T15:30:48.740Z,50.90
2018-09-13T15:33:17.384Z,49.90
2018-09-13T15:35:46.036Z,49.80
2018-09-13T15:38:14.736Z,49.30
2018-09-13T15:40:43.369Z,48.80
2018-09-13T15:43:12.011Z,48.30
2018-09-13T15:45:40.828Z,48.10
2018-09-13T15:48:09.475Z,47.60
2018-09-13T15:50:38.184Z,47.30
2018-09-13T15:53:06.882Z,47.00
2018-09-13T15:55:35.549Z,46.70
2018-09-13T15:58:04.183Z,46.70
2018-09-13T16:00:32.835Z,47.30
2018-09-13T16:03:01.532Z,46.70
2018-09-13T16:05:30.298Z,46.50
2018-09-13T16:07:58.988Z,46.30
2018-09-13T16:10:27.639Z,46.70
2018-09-13T16:12:56.355Z,47.00
2018-09-13T16:15:24.953Z,46.70
2018-09-13T16:17:53.622Z,47.00
2018-09-13T16:20:22.289Z,47.20
2018-09-13T16:22:50.933Z,48.00
2018-09-13T16:25:19.672Z,47.40
2018-09-13T16:27:48.304Z,47.50
2018-09-13T16:30:16.948Z,47.20
2018-09-13T16:32:45.610Z,47.10
2018-09-13T16:35:14.593Z,47.20
2018-09-13T16:37:50.713Z,47.70
2018-09-13T16:40:25.055Z,48.10
2018-09-13T16:42:59.297Z,48.20
2018-09-13T16:45:29.029Z,48.20
2018-09-13T16:48:03.103Z,48.20
2018-09-13T16:50:31.779Z,48.20
2018-09-13T16:53:00.589Z,49.20
2018-09-13T16:55:29.241Z,48.80
2018-09-13T16:57:57.920Z,49.10
2018-09-13T17:00:27.106Z,48.90
2018-09-13T17:02:55.975Z,49.10
2018-09-13T17:05:24.644Z,49.20
2018-09-13T17:07:53.373Z,49.50
2018-09-13T17:10:22.051Z,49.70
2018-09-13T17:12:50.676Z,49.90
2018-09-13T17:15:19.306Z,50.20
2018-09-13T17:17:47.979Z,50.30
2018-09-13T17:20:16.825Z,50.50
2018-09-13T17:22:45.578Z,49.50
2018-09-13T17:25:14.202Z,48.20
2018-09-13T17:27:42.824Z,47.40
2018-09-13T17:30:11.497Z,46.80
2018-09-13T17:32:40.150Z,46.50
2018-09-13T17:35:08.791Z,46.40
2018-09-13T17:37:37.477Z,46.30
2018-09-13T17:40:06.329Z,46.10
2018-09-13T17:42:34.969Z,46.20
2018-09-13T17:45:03.654Z,46.30
2018-09-13T17:47:32.322Z,46.30
2018-09-13T17:50:00.962Z,46.50
2018-09-13T17:52:29.621Z,46.90
2018-09-13T17:55:01.320Z,47.10
2018-09-13T17:57:29.977Z,47.10
2018-09-13T17:59:58.636Z,47.40
2018-09-13T18:02:27.298Z,47.40
2018-09-13T18:04:55.943Z,47.30
2018-09-13T18:07:24.584Z,47.40
2018-09-13T18:09:53.267Z,47.50
2018-09-13T18:12:21.896Z,47.60
2018-09-13T18:14:50.580Z,47.60
2018-09-13T18:17:19.235Z,47.80
2018-09-13T18:19:47.875Z,48.30
2018-09-13T18:22:16.676Z,47.90
2018-09-13T18:24:45.324Z,48.00
2018-09-13T18:27:13.986Z,48.20
2018-09-13T18:29:42.618Z,48.40
2018-09-13T18:32:11.253Z,48.50
2018-09-13T18:34:39.969Z,48.60
2018-09-13T18:37:08.636Z,48.60
2018-09-13T18:39:37.289Z,48.70
2018-09-13T18:42:09.297Z,48.80
2018-09-13T18:44:37.937Z,48.90
2018-09-13T18:47:06.609Z,49.10
2018-09-13T18:49:35.254Z,49.30
2018-09-13T18:52:03.915Z,49.40
2018-09-13T18:54:32.599Z,49.50
2018-09-13T18:57:01.239Z,49.70
2018-09-13T18:59:29.978Z,50.00
2018-09-13T19:01:58.565Z,50.00
2018-09-13T19:04:27.281Z,50.10
2018-09-13T19:06:55.960Z,50.30
2018-09-13T19:09:24.605Z,50.60
2018-09-13T19:11:53.254Z,50.70
2018-09-13T19:14:21.897Z,50.70
2018-09-13T19:16:50.540Z,50.80
2018-09-13T19:19:19.181Z,50.90
2018-09-13T19:21:47.834Z,51.10
2018-09-13T19:24:16.491Z,51.30
2018-09-13T19:26:45.166Z,51.40
2018-09-13T19:29:13.812Z,51.50
2018-09-13T19:31:42.474Z,51.60
2018-09-13T19:34:11.146Z,51.90
2018-09-13T19:36:39.788Z,52.00
2018-09-13T19:39:10.868Z,52.10
2018-09-13T19:41:39.901Z,52.20
2018-09-13T19:44:08.607Z,52.30
2018-09-13T19:46:37.301Z,52.50
2018-09-13T19:49:07.710Z,52.60
2018-09-13T19:51:48.103Z,52.60
2018-09-13T19:54:33.781Z,52.90
2018-09-13T19:57:07.990Z,53.10
2018-09-13T19:59:38.225Z,53.10
2018-09-13T20:02:06.883Z,53.30
2018-09-13T20:04:35.595Z,53.40
2018-09-13T20:07:04.267Z,53.50
2018-09-13T20:09:32.954Z,53.80
2018-09-13T20:12:05.675Z,53.90
2018-09-13T20:17:25.344Z,54.10
2018-09-13T20:19:53.992Z,54.30
2018-09-13T20:22:40.795Z,54.40
2018-09-13T20:25:11.224Z,54.60
2018-09-13T20:27:51.234Z,54.60
2018-09-13T20:30:20.038Z,55.00
2018-09-13T20:32:48.671Z,55.20
2018-09-13T20:35:17.508Z,55.20
2018-09-13T20:37:46.261Z,55.30
2018-09-13T20:40:14.892Z,55.50
2018-09-13T20:42:45.563Z,55.60
2018-09-13T20:45:21.383Z,55.70
2018-09-13T20:47:55.477Z,55.90
2018-09-13T20:50:24.101Z,56.00
2018-09-13T20:52:59.605Z,56.20
2018-09-13T20:55:28.255Z,56.20
2018-09-13T20:57:56.935Z,56.30
2018-09-13T21:00:25.571Z,57.00
2018-09-13T21:02:54.183Z,56.60
2018-09-13T21:05:22.815Z,56.80
2018-09-13T21:07:51.496Z,56.90
2018-09-13T21:10:20.128Z,57.00
2018-09-13T21:12:48.731Z,57.00
2018-09-13T21:15:17.390Z,57.10
2018-09-13T21:17:46.007Z,57.20
2018-09-13T21:20:14.636Z,57.30
2018-09-13T21:22:43.251Z,57.40
2018-09-13T21:25:11.952Z,57.50
2018-09-13T21:27:40.624Z,57.70
2018-09-13T21:30:09.255Z,57.80
2018-09-13T21:32:37.931Z,58.00
2018-09-13T21:35:06.644Z,58.20
2018-09-13T21:37:35.270Z,58.20
2018-09-13T21:40:03.992Z,58.30
2018-09-13T21:42:32.637Z,58.20
2018-09-13T21:45:01.265Z,58.20
2018-09-13T21:47:29.893Z,58.50
2018-09-13T21:49:58.516Z,58.40
2018-09-13T21:52:27.149Z,58.50
2018-09-13T21:54:55.764Z,58.40
2018-09-13T21:57:24.375Z,58.50
2018-09-13T21:59:58.496Z,58.60
2018-09-13T22:02:27.168Z,58.50
2018-09-13T22:04:55.825Z,58.60
2018-09-13T22:07:24.564Z,58.60
2018-09-13T22:09:53.204Z,58.80
2018-09-13T22:12:21.941Z,59.00
2018-09-13T22:14:50.655Z,59.00
2018-09-13T22:17:19.452Z,59.10
2018-09-13T22:19:48.144Z,59.10
2018-09-13T22:22:16.908Z,59.10
2018-09-13T22:24:45.608Z,59.10
2018-09-13T22:27:14.273Z,59.10
2018-09-13T22:29:42.928Z,59.10
2018-09-13T22:32:11.622Z,59.30
2018-09-13T22:34:40.281Z,59.30
2018-09-13T22:37:08.992Z,59.30
2018-09-13T22:39:37.653Z,59.40
2018-09-13T22:42:06.483Z,59.30
2018-09-13T22:44:39.097Z,59.30
2018-09-13T22:47:08.222Z,59.60
2018-09-13T22:49:37.017Z,59.60
2018-09-13T22:52:06.091Z,59.70
2018-09-13T22:54:34.758Z,59.70
2018-09-13T22:57:03.514Z,59.60
2018-09-13T22:59:32.244Z,59.80
2018-09-13T23:02:00.926Z,59.80
2018-09-13T23:04:29.581Z,59.90
2018-09-13T23:06:58.203Z,60.20
2018-09-13T23:09:26.852Z,60.00
2018-09-13T23:11:55.517Z,60.30
2018-09-13T23:14:24.201Z,60.40
2018-09-13T23:16:52.885Z,60.30
2018-09-13T23:19:21.601Z,60.30
2018-09-13T23:21:50.242Z,60.30
2018-09-13T23:24:18.888Z,60.30
2018-09-13T23:26:47.529Z,60.60
2018-09-13T23:29:16.175Z,61.30
2018-09-13T23:31:44.859Z,60.50
2018-09-13T23:34:13.540Z,60.60
2018-09-13T23:36:42.190Z,60.70
2018-09-13T23:39:10.923Z,60.60
2018-09-13T23:41:40.393Z,60.50
2018-09-13T23:44:09.065Z,60.70
2018-09-13T23:46:37.750Z,60.70
2018-09-13T23:49:06.424Z,61.00
2018-09-13T23:51:35.081Z,60.90
2018-09-13T23:54:03.800Z,61.00
2018-09-13T23:56:32.480Z,61.00
2018-09-13T23:59:01.143Z,61.00
